createdAt,value
2022-12-31T00:02:06.695Z,98533.74
2022-12-31T00:04:34.759Z,98533.65
2022-12-31T00:07:02.622Z,98537.02
2022-12-31T00:09:30.976Z,98536.78
2022-12-31T00:11:58.836Z,98549.84
2022-12-31T00:14:26.815Z,98552.08
2022-12-31T00:16:55.305Z,98555.34
2022-12-31T00:19:23.171Z,98555.39
2022-12-31T00:21:51.377Z,98560.94
2022-12-31T00:24:19.248Z,98568.12
2022-12-31T00:26:47.110Z,98570.34
2022-12-31T00:29:14.927Z,98573.19
2022-12-31T00:31:42.788Z,98575.02
2022-12-31T00:34:13.260Z,98574.19
2022-12-31T00:36:42.773Z,98578.65
2022-12-31T00:39:10.876Z,98577.67
2022-12-31T00:41:38.851Z,98576.66
2022-12-31T00:44:06.724Z,98575.67
2022-12-31T00:49:02.080Z,98584.81
2022-12-31T00:51:30.115Z,98583.00
2022-12-31T00:53:58.505Z,98581.23
2022-12-31T00:56:28.113Z,98572.98
2022-12-31T00:58:56.644Z,98574.84
2022-12-31T01:01:26.392Z,98582.14
2022-12-31T01:03:56.331Z,98578.98
2022-12-31T01:06:24.282Z,98583.09
2022-12-31T01:08:53.260Z,98580.35
2022-12-31T01:11:24.630Z,98583.98
2022-12-31T01:13:52.619Z,98578.46
2022-12-31T01:16:22.555Z,98582.55
2022-12-31T01:18:51.642Z,98580.86
2022-12-31T01:21:19.893Z,98582.95
2022-12-31T01:23:47.820Z,98584.23
2022-12-31T01:26:16.560Z,98587.73
2022-12-31T01:28:44.577Z,98583.45
2022-12-31T01:31:15.241Z,98586.60
2022-12-31T01:33:43.830Z,98588.29
2022-12-31T01:36:13.568Z,98592.09
2022-12-31T01:38:41.749Z,98588.05
2022-12-31T01:41:14.100Z,98586.29
2022-12-31T01:43:56.836Z,98579.89
2022-12-31T01:46:27.801Z,98582.80
2022-12-31T01:49:01.737Z,98585.83
2022-12-31T01:51:31.391Z,98591.36
2022-12-31T01:54:01.430Z,98590.97
2022-12-31T01:56:29.287Z,98592.15
2022-12-31T01:58:58.279Z,98589.55
2022-12-31T02:01:28.530Z,98588.17
2022-12-31T02:03:57.709Z,98590.05
2022-12-31T02:06:35.202Z,98591.89
2022-12-31T02:09:03.210Z,98597.33
2022-12-31T02:11:33.059Z,98600.87
2022-12-31T02:14:03.854Z,98598.91
2022-12-31T02:16:34.640Z,98598.25
2022-12-31T02:19:10.954Z,98594.80
2022-12-31T02:21:48.149Z,98590.16
2022-12-31T02:24:19.164Z,98594.59
2022-12-31T02:26:53.710Z,98595.45
2022-12-31T02:29:40.010Z,98598.77
2022-12-31T02:32:12.663Z,98595.41
2022-12-31T02:34:50.855Z,98595.79
2022-12-31T02:37:20.123Z,98597.08
2022-12-31T02:39:48.269Z,98596.82
2022-12-31T02:42:16.120Z,98598.63
2022-12-31T02:44:43.988Z,98598.86
2022-12-31T02:47:18.018Z,98604.61
2022-12-31T02:49:48.711Z,98605.36
2022-12-31T02:52:33.292Z,98601.56
2022-12-31T02:55:11.456Z,98604.49
2022-12-31T02:57:59.619Z,98604.30
2022-12-31T03:00:47.954Z,98602.65
2022-12-31T03:03:15.894Z,98605.77
2022-12-31T03:05:44.991Z,98600.61
2022-12-31T03:08:20.374Z,98602.12
2022-12-31T03:10:48.160Z,98603.83
2022-12-31T03:13:16.167Z,98601.30
2022-12-31T03:15:44.024Z,98600.02
2022-12-31T03:18:15.971Z,98597.88
2022-12-31T03:21:02.486Z,98599.25
2022-12-31T03:23:32.228Z,98600.42
2022-12-31T03:26:00.563Z,98602.65
2022-12-31T03:28:30.651Z,98605.88
2022-12-31T03:31:00.251Z,98602.55
2022-12-31T03:33:36.633Z,98602.37
2022-12-31T03:36:05.586Z,98608.53
2022-12-31T03:38:33.367Z,98603.34
2022-12-31T03:41:01.500Z,98598.91
2022-12-31T03:43:29.310Z,98594.65
2022-12-31T03:45:59.829Z,98612.41
2022-12-31T03:48:27.884Z,98628.16
2022-12-31T03:50:55.723Z,98635.88
2022-12-31T03:53:23.591Z,98638.89
2022-12-31T03:55:52.623Z,98636.55
2022-12-31T03:58:20.751Z,98627.04
2022-12-31T04:00:48.659Z,98620.50
2022-12-31T04:03:16.650Z,98623.64
2022-12-31T04:05:44.511Z,98631.71
2022-12-31T04:08:12.674Z,98634.02
2022-12-31T04:10:40.476Z,98635.52
2022-12-31T04:13:08.243Z,98636.67
2022-12-31T04:15:35.988Z,98631.94
2022-12-31T04:18:03.828Z,98629.77
2022-12-31T04:20:31.606Z,98632.64
2022-12-31T04:22:59.373Z,98639.50
2022-12-31T04:25:27.170Z,98641.24
2022-12-31T04:27:55.519Z,98639.75
2022-12-31T04:30:23.349Z,98646.12
2022-12-31T04:32:51.094Z,98646.35
2022-12-31T04:35:18.995Z,98647.40
2022-12-31T04:37:46.777Z,98651.66
2022-12-31T04:40:14.719Z,98649.75
2022-12-31T04:42:42.926Z,98648.17
2022-12-31T04:45:10.861Z,98654.66
2022-12-31T04:47:38.732Z,98652.73
2022-12-31T04:50:07.738Z,98639.95
2022-12-31T04:52:40.534Z,98637.25
2022-12-31T04:55:10.907Z,98642.67
2022-12-31T04:57:39.036Z,98654.11
2022-12-31T05:00:08.154Z,98654.72
2022-12-31T05:02:36.303Z,98656.70
2022-12-31T05:05:04.988Z,98657.32
2022-12-31T05:07:32.949Z,98659.34
2022-12-31T05:10:00.762Z,98664.86
2022-12-31T05:12:28.938Z,98661.03
2022-12-31T05:14:56.798Z,98660.57
2022-12-31T05:17:24.575Z,98656.45
2022-12-31T05:19:52.370Z,98654.50
2022-12-31T05:22:29.214Z,98655.41
2022-12-31T05:24:58.179Z,98666.95
2022-12-31T05:27:27.582Z,98673.57
2022-12-31T05:29:55.364Z,98668.71
2022-12-31T05:32:23.188Z,98670.45
2022-12-31T05:34:51.038Z,98679.41
2022-12-31T05:37:18.932Z,98672.23
2022-12-31T05:39:46.896Z,98649.73
2022-12-31T05:42:14.773Z,98652.96
2022-12-31T05:44:42.524Z,98669.25
2022-12-31T05:47:10.258Z,98672.86
2022-12-31T05:49:38.042Z,98671.55
2022-12-31T05:52:06.872Z,98669.36
2022-12-31T05:54:34.746Z,98672.98
2022-12-31T05:57:03.055Z,98671.09
2022-12-31T05:59:31.114Z,98673.04
2022-12-31T06:01:59.139Z,98674.85
2022-12-31T06:04:26.935Z,98678.55
2022-12-31T06:06:55.134Z,98672.55
2022-12-31T06:09:23.033Z,98666.27
2022-12-31T06:11:50.970Z,98668.48
2022-12-31T06:14:18.791Z,98678.31
2022-12-31T06:16:46.740Z,98679.40
2022-12-31T06:19:14.727Z,98685.58
2022-12-31T06:21:42.494Z,98689.77
2022-12-31T06:24:10.226Z,98690.27
2022-12-31T06:26:40.193Z,98691.42
2022-12-31T06:29:08.033Z,98700.36
2022-12-31T06:31:36.349Z,98704.55
2022-12-31T06:34:04.461Z,98701.20
2022-12-31T06:36:32.270Z,98702.63
2022-12-31T06:39:01.727Z,98708.25
2022-12-31T06:41:31.126Z,98707.93
2022-12-31T06:43:58.884Z,98712.14
2022-12-31T06:46:27.075Z,98709.63
2022-12-31T06:48:54.971Z,98705.33
2022-12-31T06:51:22.982Z,98706.89
2022-12-31T06:53:51.858Z,98715.62
2022-12-31T06:56:21.447Z,98723.11
2022-12-31T06:58:49.798Z,98721.36
2022-12-31T07:01:20.548Z,98718.02
2022-12-31T07:03:57.819Z,98716.61
2022-12-31T07:06:28.594Z,98716.20
2022-12-31T07:09:14.179Z,98719.27
2022-12-31T07:12:00.895Z,98712.15
2022-12-31T07:14:34.520Z,98717.02
2022-12-31T07:17:25.086Z,98719.13
2022-12-31T07:20:01.802Z,98720.27
2022-12-31T07:22:29.838Z,98725.29
2022-12-31T07:24:57.716Z,98731.05
2022-12-31T07:27:44.404Z,98733.05
2022-12-31T07:30:24.781Z,98731.88
2022-12-31T07:33:10.736Z,98734.33
2022-12-31T07:36:08.856Z,98730.09
2022-12-31T07:38:36.707Z,98725.24
2022-12-31T07:41:09.937Z,98727.58
2022-12-31T07:43:45.118Z,98730.34
2022-12-31T07:46:32.294Z,98727.82
2022-12-31T07:49:00.383Z,98725.45
2022-12-31T07:51:28.401Z,98732.77
2022-12-31T07:53:56.306Z,98732.70
2022-12-31T07:56:24.134Z,98736.17
2022-12-31T07:59:10.813Z,98737.36
2022-12-31T08:02:12.231Z,98730.73
2022-12-31T08:04:49.328Z,98729.72
2022-12-31T08:07:17.386Z,98721.73
2022-12-31T08:09:51.451Z,98725.17
2022-12-31T08:12:21.398Z,98733.01
2022-12-31T08:14:49.461Z,98725.66
2022-12-31T08:17:18.751Z,98730.37
2022-12-31T08:19:47.091Z,98737.95
2022-12-31T08:22:21.083Z,98738.20
2022-12-31T08:24:48.962Z,98745.21
2022-12-31T08:27:26.000Z,98741.40
2022-12-31T08:30:06.207Z,98748.39
2022-12-31T08:32:46.578Z,98746.81
2022-12-31T08:35:20.951Z,98746.41
2022-12-31T08:38:09.828Z,98746.86
2022-12-31T08:40:47.454Z,98751.63
2022-12-31T08:43:38.505Z,98750.70
2022-12-31T08:46:11.315Z,98749.56
2022-12-31T08:48:43.721Z,98745.23
2022-12-31T08:51:17.756Z,98743.13
2022-12-31T08:53:45.732Z,98753.23
2022-12-31T08:56:26.494Z,98747.44
2022-12-31T08:59:13.115Z,98744.39
2022-12-31T09:02:01.461Z,98740.64
2022-12-31T09:04:29.522Z,98734.55
2022-12-31T09:07:02.342Z,98727.31
2022-12-31T09:09:36.386Z,98725.84
2022-12-31T09:12:10.742Z,98725.27
2022-12-31T09:14:43.942Z,98727.66
2022-12-31T09:17:24.269Z,98723.07
2022-12-31T09:19:52.298Z,98726.46
2022-12-31T09:22:20.546Z,98726.50
2022-12-31T09:24:48.554Z,98725.49
2022-12-31T09:27:27.844Z,98721.27
2022-12-31T09:30:04.811Z,98727.39
2022-12-31T09:32:32.653Z,98719.82
2022-12-31T09:35:08.037Z,98712.41
2022-12-31T09:37:35.968Z,98719.25
2022-12-31T09:40:26.937Z,98715.31
2022-12-31T09:43:00.060Z,98720.39
2022-12-31T09:45:44.680Z,98714.30
2022-12-31T09:48:12.996Z,98717.90
2022-12-31T09:50:40.884Z,98715.09
2022-12-31T09:53:27.996Z,98710.19
2022-12-31T09:56:02.226Z,98704.87
2022-12-31T09:58:38.126Z,98708.53
2022-12-31T10:01:24.336Z,98705.84
2022-12-31T10:03:52.215Z,98703.27
2022-12-31T10:06:37.921Z,98703.11
2022-12-31T10:09:08.704Z,98704.58
2022-12-31T10:11:36.585Z,98706.11
2022-12-31T10:14:10.766Z,98698.70
2022-12-31T10:16:41.655Z,98700.02
2022-12-31T10:19:12.788Z,98702.88
2022-12-31T10:22:00.190Z,98695.08
2022-12-31T10:24:38.506Z,98692.16
2022-12-31T10:27:25.380Z,98699.14
2022-12-31T10:30:17.825Z,98688.17
2022-12-31T10:32:52.102Z,98691.48
2022-12-31T10:35:38.958Z,98692.38
2022-12-31T10:38:25.716Z,98691.46
2022-12-31T10:41:02.792Z,98696.45
2022-12-31T10:43:49.479Z,98688.94
2022-12-31T10:46:36.455Z,98690.98
2022-12-31T10:49:04.479Z,98692.34
2022-12-31T10:51:38.625Z,98694.98
2022-12-31T10:54:09.422Z,98695.51
2022-12-31T10:57:07.392Z,98695.21
2022-12-31T10:59:54.594Z,98677.15
2022-12-31T11:02:30.023Z,98679.17
2022-12-31T11:04:58.947Z,98673.60
2022-12-31T11:07:46.778Z,98670.27
2022-12-31T11:10:33.243Z,98660.69
2022-12-31T11:13:01.001Z,98657.78
2022-12-31T11:15:50.230Z,98665.95
2022-12-31T11:18:36.888Z,98660.80
2022-12-31T11:21:13.007Z,98649.94
2022-12-31T11:23:53.273Z,98649.88
2022-12-31T11:26:41.641Z,98659.38
2022-12-31T11:29:24.571Z,98658.55
2022-12-31T11:31:59.858Z,98655.80
2022-12-31T11:34:37.407Z,98648.80
2022-12-31T11:37:09.683Z,98644.41
2022-12-31T11:39:57.381Z,98651.65
2022-12-31T11:42:41.834Z,98657.73
2022-12-31T11:45:29.434Z,98652.17
2022-12-31T11:48:29.268Z,98650.77
2022-12-31T11:50:53.719Z,98646.48
2022-12-31T11:53:39.858Z,98643.17
2022-12-31T11:56:10.367Z,98636.33
2022-12-31T11:58:39.138Z,98630.27
2022-12-31T12:01:17.921Z,98631.05
2022-12-31T12:03:46.380Z,98626.31
2022-12-31T12:06:15.886Z,98625.20
2022-12-31T12:08:44.455Z,98627.80
2022-12-31T12:11:21.450Z,98629.20
2022-12-31T12:13:49.648Z,98632.11
2022-12-31T12:16:20.085Z,98632.06
2022-12-31T12:18:49.840Z,98638.14
2022-12-31T12:21:20.568Z,98637.73
2022-12-31T12:23:59.216Z,98641.48
2022-12-31T12:26:29.970Z,98644.90
2022-12-31T12:29:00.087Z,98650.79
2022-12-31T12:31:28.232Z,98652.94
2022-12-31T12:33:57.597Z,98649.86
2022-12-31T12:36:25.432Z,98646.64
2022-12-31T12:39:04.455Z,98647.98
2022-12-31T12:41:32.630Z,98644.94
2022-12-31T12:44:05.058Z,98650.00
2022-12-31T12:46:34.866Z,98654.20
2022-12-31T12:49:03.847Z,98654.27
2022-12-31T12:51:58.251Z,98657.48
2022-12-31T12:54:29.127Z,98659.10
2022-12-31T12:57:05.601Z,98657.19
2022-12-31T12:59:39.859Z,98655.21
2022-12-31T13:02:17.165Z,98661.26
2022-12-31T13:04:45.314Z,98667.77
2022-12-31T13:07:19.160Z,98673.20
2022-12-31T13:09:54.177Z,98677.86
2022-12-31T13:12:22.069Z,98679.30
2022-12-31T13:14:59.624Z,98681.30
2022-12-31T13:17:49.765Z,98685.53
2022-12-31T13:20:28.322Z,98687.14
2022-12-31T13:23:00.002Z,98683.43
2022-12-31T13:25:33.673Z,98686.29
2022-12-31T13:28:05.215Z,98692.27
2022-12-31T13:30:38.138Z,98691.20
2022-12-31T13:33:32.116Z,98689.89
2022-12-31T13:36:08.981Z,98694.61
2022-12-31T13:38:41.629Z,98697.33
2022-12-31T13:41:14.030Z,98692.25
2022-12-31T13:43:58.518Z,98691.75
2022-12-31T13:46:47.059Z,98682.59
2022-12-31T13:49:18.450Z,98679.46
2022-12-31T13:51:48.528Z,98686.73
2022-12-31T13:54:19.276Z,98687.38
2022-12-31T13:56:49.513Z,98690.77
2022-12-31T13:59:30.442Z,98696.48
2022-12-31T14:02:07.384Z,98702.79
2022-12-31T14:04:50.642Z,98698.47
2022-12-31T14:07:22.230Z,98700.41
2022-12-31T14:09:50.893Z,98697.77
2022-12-31T14:12:18.713Z,98700.05
2022-12-31T14:14:52.395Z,98700.12
2022-12-31T14:17:23.508Z,98707.29
2022-12-31T14:20:14.831Z,98713.11
2022-12-31T14:22:42.693Z,98713.73
2022-12-31T14:25:20.400Z,98709.76
2022-12-31T14:27:50.994Z,98712.48
2022-12-31T14:30:23.489Z,98712.45
2022-12-31T14:33:21.190Z,98718.36
2022-12-31T14:35:48.966Z,98712.32
2022-12-31T14:38:35.447Z,98712.58
2022-12-31T14:41:15.587Z,98712.30
2022-12-31T14:43:52.789Z,98710.77
2022-12-31T14:46:32.896Z,98707.46
2022-12-31T14:49:00.737Z,98705.71
2022-12-31T14:51:29.511Z,98700.97
2022-12-31T14:53:59.022Z,98700.77
2022-12-31T14:56:32.188Z,98704.45
2022-12-31T14:59:01.288Z,98708.61
2022-12-31T15:01:29.729Z,98709.19
2022-12-31T15:03:58.483Z,98707.88
2022-12-31T15:06:35.864Z,98709.79
2022-12-31T15:09:08.511Z,98711.77
2022-12-31T15:11:39.757Z,98716.26
2022-12-31T15:14:16.794Z,98716.98
2022-12-31T15:16:47.890Z,98720.98
2022-12-31T15:19:19.294Z,98716.88
2022-12-31T15:22:03.918Z,98713.31
2022-12-31T15:24:31.910Z,98716.21
2022-12-31T15:27:01.621Z,98716.77
2022-12-31T15:29:50.104Z,98714.56
2022-12-31T15:32:20.277Z,98712.98
2022-12-31T15:34:48.207Z,98715.55
2022-12-31T15:37:29.445Z,98723.61
2022-12-31T15:40:15.825Z,98728.70
2022-12-31T15:42:51.227Z,98736.81
2022-12-31T15:45:23.042Z,98749.06
2022-12-31T15:47:55.042Z,98756.94
2022-12-31T15:50:24.027Z,98760.86
2022-12-31T15:52:55.607Z,98761.71
2022-12-31T15:55:49.717Z,98760.66
2022-12-31T15:58:21.345Z,98763.04
2022-12-31T16:01:07.043Z,98754.45
2022-12-31T16:03:36.671Z,98761.47
2022-12-31T16:06:10.745Z,98764.61
2022-12-31T16:08:39.537Z,98758.64
2022-12-31T16:11:08.477Z,98761.58
2022-12-31T16:13:39.242Z,98763.39
2022-12-31T16:16:09.324Z,98770.83
2022-12-31T16:18:41.988Z,98768.88
2022-12-31T16:21:48.340Z,98769.56
2022-12-31T16:24:33.174Z,98766.66
2022-12-31T16:27:09.335Z,98766.45
2022-12-31T16:29:41.737Z,98763.18
2022-12-31T16:32:17.743Z,98766.48
2022-12-31T16:34:46.221Z,98774.02
2022-12-31T16:37:16.944Z,98776.52
2022-12-31T16:39:56.986Z,98788.27
2022-12-31T16:42:26.396Z,98795.46
2022-12-31T16:44:55.664Z,98796.52
2022-12-31T16:47:30.328Z,98791.27
2022-12-31T16:49:58.146Z,98795.54
2022-12-31T16:52:33.802Z,98801.36
2022-12-31T16:55:01.976Z,98801.39
2022-12-31T16:57:31.203Z,98807.73
2022-12-31T17:00:02.016Z,98807.92
2022-12-31T17:02:34.051Z,98812.71
2022-12-31T17:05:02.681Z,98813.55
2022-12-31T17:07:30.511Z,98811.36
2022-12-31T17:10:24.886Z,98808.02
2022-12-31T17:15:45.620Z,98818.30
2022-12-31T17:18:22.231Z,98824.35
2022-12-31T17:20:51.584Z,98811.52
2022-12-31T17:23:23.577Z,98811.98
2022-12-31T17:25:57.792Z,98811.08
2022-12-31T17:28:40.131Z,98825.99
2022-12-31T17:31:26.336Z,98829.75
2022-12-31T17:34:03.927Z,98836.49
2022-12-31T17:36:31.807Z,98842.92
2022-12-31T17:39:32.130Z,98845.88
2022-12-31T17:41:59.948Z,98849.88
2022-12-31T17:44:29.135Z,98853.98
2022-12-31T17:46:57.711Z,98847.45
2022-12-31T17:49:29.891Z,98850.42
2022-12-31T17:52:00.230Z,98852.16
2022-12-31T17:54:28.315Z,98852.14
2022-12-31T17:56:56.204Z,98847.32
2022-12-31T17:59:29.756Z,98853.73
2022-12-31T18:02:00.053Z,98855.81
2022-12-31T18:04:28.148Z,98856.90
2022-12-31T18:06:55.910Z,98851.64
2022-12-31T18:09:23.812Z,98846.36
2022-12-31T18:11:54.340Z,98836.02
2022-12-31T18:14:24.799Z,98842.15
2022-12-31T18:16:52.656Z,98837.94
2022-12-31T18:19:54.194Z,98838.98
2022-12-31T18:22:13.189Z,98836.92
2022-12-31T18:24:41.233Z,98831.81
2022-12-31T18:27:14.582Z,98837.08
2022-12-31T18:29:42.467Z,98837.18
2022-12-31T18:32:20.847Z,98827.23
2022-12-31T18:34:49.039Z,98825.11
2022-12-31T18:37:21.660Z,98823.84
2022-12-31T18:39:50.277Z,98824.09
2022-12-31T18:42:18.812Z,98832.04
2022-12-31T18:44:46.748Z,98825.67
2022-12-31T18:47:16.781Z,98826.41
2022-12-31T18:49:48.724Z,98823.91
2022-12-31T18:52:18.396Z,98827.36
2022-12-31T18:54:46.380Z,98831.88
2022-12-31T18:57:15.285Z,98831.05
2022-12-31T18:59:43.646Z,98837.91
2022-12-31T19:02:16.418Z,98843.02
2022-12-31T19:04:45.118Z,98842.48
2022-12-31T19:07:12.969Z,98837.71
2022-12-31T19:09:45.714Z,98841.69
2022-12-31T19:12:15.106Z,98835.46
2022-12-31T19:14:42.971Z,98836.05
2022-12-31T19:19:41.228Z,98827.02
2022-12-31T19:22:13.590Z,98829.39
2022-12-31T19:24:41.926Z,98829.83
2022-12-31T19:27:10.137Z,98828.44
2022-12-31T19:29:38.225Z,98827.20
2022-12-31T19:32:07.386Z,98830.45
2022-12-31T19:34:35.214Z,98832.91
2022-12-31T19:37:03.032Z,98831.42
2022-12-31T19:39:31.158Z,98830.27
2022-12-31T19:42:01.838Z,98825.23
2022-12-31T19:44:30.197Z,98823.61
2022-12-31T19:46:58.536Z,98824.67
2022-12-31T19:49:26.460Z,98825.66
2022-12-31T19:51:54.391Z,98829.16
2022-12-31T19:54:22.217Z,98833.08
2022-12-31T19:56:50.172Z,98831.60
2022-12-31T19:59:18.129Z,98831.23
2022-12-31T20:01:46.097Z,98831.54
2022-12-31T20:04:14.011Z,98831.76
2022-12-31T20:06:41.899Z,98830.14
2022-12-31T20:09:11.002Z,98836.30
2022-12-31T20:11:38.888Z,98839.41
2022-12-31T20:14:06.796Z,98839.67
2022-12-31T20:16:34.687Z,98841.31
2022-12-31T20:19:02.564Z,98836.33
2022-12-31T20:21:30.451Z,98837.30
2022-12-31T20:23:58.459Z,98835.61
2022-12-31T20:26:26.764Z,98833.98
2022-12-31T20:28:54.613Z,98825.74
2022-12-31T20:31:26.492Z,98826.94
2022-12-31T20:33:55.334Z,98831.98
2022-12-31T20:36:23.814Z,98838.69
2022-12-31T20:38:51.822Z,98840.14
2022-12-31T20:41:20.999Z,98837.74
2022-12-31T20:43:49.620Z,98838.25
2022-12-31T20:46:25.190Z,98839.75
2022-12-31T20:48:54.454Z,98834.92
2022-12-31T20:51:22.815Z,98834.20
2022-12-31T20:53:58.200Z,98839.43
2022-12-31T20:56:26.950Z,98839.45
2022-12-31T20:58:54.854Z,98837.30
2022-12-31T21:01:25.476Z,98840.27
2022-12-31T21:04:09.451Z,98844.42
2022-12-31T21:06:37.698Z,98850.23
2022-12-31T21:09:06.515Z,98852.15
2022-12-31T21:11:53.475Z,98853.55
2022-12-31T21:14:21.731Z,98856.84
2022-12-31T21:16:49.643Z,98858.42
2022-12-31T21:19:17.497Z,98854.23
2022-12-31T21:21:45.273Z,98858.02
2022-12-31T21:24:13.061Z,98865.73
2022-12-31T21:26:40.953Z,98866.92
2022-12-31T21:29:08.779Z,98863.69
2022-12-31T21:31:36.604Z,98869.65
2022-12-31T21:34:04.419Z,98884.59
2022-12-31T21:36:32.236Z,98890.40
2022-12-31T21:39:00.189Z,98890.73
2022-12-31T21:41:46.504Z,98888.48
2022-12-31T21:44:14.350Z,98894.44
2022-12-31T21:47:00.784Z,98893.28
2022-12-31T21:49:30.334Z,98895.09
2022-12-31T21:52:16.963Z,98898.95
2022-12-31T21:55:03.367Z,98901.61
2022-12-31T21:57:46.250Z,98898.63
2022-12-31T22:00:43.029Z,98896.42
2022-12-31T22:03:33.017Z,98900.09
2022-12-31T22:06:14.421Z,98903.20
2022-12-31T22:08:43.582Z,98901.42
2022-12-31T22:11:12.107Z,98901.67
2022-12-31T22:13:40.886Z,98901.57
2022-12-31T22:16:08.939Z,98901.98
2022-12-31T22:18:41.391Z,98910.98
2022-12-31T22:21:17.413Z,98913.80
2022-12-31T22:23:47.616Z,98908.92
2022-12-31T22:26:18.219Z,98907.58
2022-12-31T22:28:47.785Z,98907.95
2022-12-31T22:31:17.754Z,98911.66
2022-12-31T22:33:46.358Z,98921.96
2022-12-31T22:36:17.032Z,98925.47
2022-12-31T22:38:45.376Z,98918.33
2022-12-31T22:41:14.390Z,98910.88
2022-12-31T22:43:43.386Z,98913.48
2022-12-31T22:46:18.886Z,98916.89
2022-12-31T22:48:47.322Z,98914.04
2022-12-31T22:51:15.953Z,98914.98
2022-12-31T22:53:44.910Z,98913.69
2022-12-31T22:56:14.150Z,98916.77
2022-12-31T22:58:43.070Z,98916.66
2022-12-31T23:01:22.434Z,98920.42
2022-12-31T23:03:51.477Z,98926.41
2022-12-31T23:06:19.922Z,98926.85
2022-12-31T23:09:06.595Z,98925.84
2022-12-31T23:11:35.229Z,98926.50
2022-12-31T23:14:22.137Z,98924.06
2022-12-31T23:17:29.153Z,98924.34
2022-12-31T23:20:15.820Z,98919.30
2022-12-31T23:23:02.366Z,98922.58
2022-12-31T23:25:38.240Z,98923.52
2022-12-31T23:28:07.099Z,98926.81
2022-12-31T23:30:37.403Z,98929.90
2022-12-31T23:33:05.344Z,98927.69
2022-12-31T23:35:33.605Z,98933.42
2022-12-31T23:38:01.996Z,98935.04
2022-12-31T23:40:34.749Z,98942.02
2022-12-31T23:43:03.605Z,98940.83
2022-12-31T23:45:33.466Z,98949.52
2022-12-31T23:48:01.661Z,98951.27
2022-12-31T23:50:29.533Z,98960.70
2022-12-31T23:52:57.399Z,98954.51
2022-12-31T23:55:25.462Z,98955.13
2022-12-31T23:57:53.743Z,98959.39
